createdAt,value
2018-12-22T00:00:18.206Z,0.67
2018-12-22T00:02:45.951Z,0.87
2018-12-22T00:05:13.658Z,3.50
2018-12-22T00:07:41.245Z,0.50
2018-12-22T00:10:08.842Z,0.50
2018-12-22T00:12:36.426Z,0.60
2018-12-22T00:15:04.262Z,1.50
2018-12-22T00:17:33.035Z,0.60
2018-12-22T00:20:00.679Z,1.17
2018-12-22T00:22:28.273Z,0.90
2018-12-22T00:24:55.859Z,0.40
2018-12-22T00:27:23.445Z,1.00
2018-12-22T00:29:51.043Z,0.60
2018-12-22T00:32:18.692Z,0.67
2018-12-22T00:34:48.387Z,0.50
2018-12-22T00:37:16.119Z,1.90
2018-12-22T00:39:43.912Z,3.50
2018-12-22T00:42:11.690Z,0.77
2018-12-22T00:44:39.323Z,0.60
2018-12-22T00:47:06.902Z,0.57
2018-12-22T00:49:35.451Z,0.60
2018-12-22T00:52:03.033Z,0.57
2018-12-22T00:54:30.610Z,0.70
2018-12-22T00:56:58.189Z,0.50
2018-12-22T00:59:25.891Z,0.97
2018-12-22T01:01:53.710Z,1.23
2018-12-22T01:04:21.286Z,0.57
2018-12-22T01:06:48.928Z,0.77
2018-12-22T01:09:16.785Z,0.70
2018-12-22T01:11:44.381Z,0.83
2018-12-22T01:14:11.968Z,0.90
2018-12-22T01:16:39.886Z,0.60
2018-12-22T01:19:07.467Z,1.20
2018-12-22T01:21:35.126Z,0.50
2018-12-22T01:24:02.707Z,0.50
2018-12-22T01:26:30.435Z,0.60
2018-12-22T01:28:58.019Z,1.10
2018-12-22T01:31:25.718Z,0.93
2018-12-22T01:33:54.321Z,0.90
2018-12-22T01:36:22.464Z,1.30
2018-12-22T01:38:50.042Z,2.13
2018-12-22T01:41:17.777Z,1.30
2018-12-22T01:43:45.388Z,1.50
2018-12-22T01:46:13.063Z,1.37
2018-12-22T01:48:40.844Z,0.90
2018-12-22T01:51:08.431Z,1.73
2018-12-22T01:53:36.154Z,0.83
2018-12-22T01:56:03.911Z,0.70
2018-12-22T01:58:31.568Z,0.70
2018-12-22T02:00:59.973Z,0.90
2018-12-22T02:03:28.254Z,0.83
2018-12-22T02:05:56.066Z,0.80
2018-12-22T02:08:24.617Z,1.00
2018-12-22T02:10:52.203Z,0.50
2018-12-22T02:13:20.327Z,0.97
2018-12-22T02:15:47.938Z,2.00
2018-12-22T02:18:15.678Z,2.10
2018-12-22T02:20:43.311Z,0.60
2018-12-22T02:23:10.928Z,1.47
2018-12-22T02:25:38.673Z,0.80
2018-12-22T02:28:06.266Z,0.90
2018-12-22T02:30:33.843Z,1.00
2018-12-22T02:33:01.505Z,1.03
2018-12-22T02:35:29.096Z,1.30
2018-12-22T02:37:56.705Z,1.50
2018-12-22T02:40:24.298Z,1.67
2018-12-22T02:42:51.878Z,1.27
2018-12-22T02:45:19.466Z,1.37
2018-12-22T02:47:47.093Z,1.30
2018-12-22T02:50:14.702Z,1.23
2018-12-22T02:52:43.286Z,1.40
2018-12-22T02:55:10.860Z,1.33
2018-12-22T02:57:38.534Z,2.00
2018-12-22T03:00:09.658Z,1.67
2018-12-22T03:02:37.355Z,2.37
2018-12-22T03:05:05.317Z,1.50
2018-12-22T03:07:32.905Z,1.73
2018-12-22T03:10:00.649Z,1.77
2018-12-22T03:12:28.355Z,2.20
2018-12-22T03:14:56.039Z,1.63
2018-12-22T03:17:23.622Z,1.27
2018-12-22T03:19:51.210Z,2.13
2018-12-22T03:22:18.810Z,4.83
2018-12-22T03:24:46.404Z,1.23
2018-12-22T03:27:14.014Z,2.93
2018-12-22T03:29:41.893Z,1.13
2018-12-22T03:32:09.553Z,2.00
2018-12-22T03:34:37.593Z,1.37
2018-12-22T03:37:05.247Z,1.63
2018-12-22T03:39:32.836Z,1.23
2018-12-22T03:42:00.427Z,1.53
2018-12-22T03:44:29.126Z,1.20
2018-12-22T03:46:56.708Z,1.37
2018-12-22T03:49:24.310Z,0.93
2018-12-22T03:51:52.168Z,0.63
2018-12-22T03:54:20.555Z,1.37
2018-12-22T03:56:48.144Z,2.33
2018-12-22T03:59:24.451Z,1.53
2018-12-22T04:01:45.364Z,1.50
2018-12-22T04:04:12.962Z,0.70
2018-12-22T04:06:40.725Z,0.60
2018-12-22T04:09:09.374Z,1.20
2018-12-22T04:11:37.146Z,1.07
2018-12-22T04:14:04.737Z,0.90
2018-12-22T04:16:32.552Z,1.17
2018-12-22T04:19:00.443Z,0.70
2018-12-22T04:21:28.584Z,0.90
2018-12-22T04:23:57.059Z,1.23
2018-12-22T04:26:24.725Z,0.87
2018-12-22T04:28:52.324Z,0.93
2018-12-22T04:31:19.908Z,0.73
2018-12-22T04:33:47.547Z,1.67
2018-12-22T04:36:15.499Z,1.27
2018-12-22T04:38:44.025Z,1.30
2018-12-22T04:41:11.626Z,1.47
2018-12-22T04:43:39.218Z,1.43
2018-12-22T04:46:06.824Z,1.43
2018-12-22T04:48:34.422Z,0.87
2018-12-22T04:51:02.084Z,1.90
2018-12-22T04:53:29.670Z,0.70
2018-12-22T04:55:57.263Z,0.50
2018-12-22T04:58:26.017Z,0.80
2018-12-22T05:00:53.606Z,0.97
2018-12-22T05:03:21.862Z,0.40
2018-12-22T05:05:49.434Z,0.50
2018-12-22T05:08:17.005Z,0.40
2018-12-22T05:10:44.583Z,0.50
2018-12-22T05:13:12.962Z,0.40
2018-12-22T05:15:40.533Z,0.50
2018-12-22T05:18:08.123Z,0.50
2018-12-22T05:20:36.514Z,2.10
2018-12-22T05:23:04.862Z,0.27
2018-12-22T05:25:32.430Z,0.67
2018-12-22T05:28:00.340Z,0.80
2018-12-22T05:30:28.656Z,0.40
2018-12-22T05:32:57.478Z,0.30
2018-12-22T05:35:25.066Z,0.37
2018-12-22T05:37:52.685Z,0.40
2018-12-22T05:40:20.280Z,0.40
2018-12-22T05:42:47.943Z,2.33
2018-12-22T05:45:15.509Z,0.57
2018-12-22T05:47:43.094Z,0.60
2018-12-22T05:50:10.682Z,0.77
2018-12-22T05:52:38.377Z,0.50
2018-12-22T05:55:07.236Z,0.40
2018-12-22T05:57:34.821Z,0.60
2018-12-22T06:00:02.414Z,0.40
2018-12-22T06:02:29.986Z,0.50
2018-12-22T06:04:57.735Z,0.83
2018-12-22T06:07:25.322Z,0.30
2018-12-22T06:09:52.957Z,0.93
2018-12-22T06:12:20.685Z,0.40
2018-12-22T06:14:48.362Z,0.30
2018-12-22T06:17:16.511Z,0.83
2018-12-22T06:19:44.178Z,0.40
2018-12-22T06:22:11.822Z,0.43
2018-12-22T06:24:39.431Z,0.40
2018-12-22T06:27:07.003Z,0.40
2018-12-22T06:29:34.609Z,1.47
2018-12-22T06:32:03.018Z,0.80
2018-12-22T06:34:30.598Z,1.23
2018-12-22T06:36:58.166Z,5.80
2018-12-22T06:39:26.660Z,0.40
2018-12-22T06:41:54.235Z,3.27
2018-12-22T06:44:21.822Z,1.60
2018-12-22T06:46:49.403Z,0.70
2018-12-22T06:49:16.983Z,1.40
2018-12-22T06:51:44.554Z,2.03
2018-12-22T06:54:12.130Z,0.57
2018-12-22T06:56:39.715Z,0.70
2018-12-22T06:59:07.303Z,0.67
2018-12-22T07:01:34.877Z,5.47
2018-12-22T07:04:02.460Z,1.40
2018-12-22T07:06:30.092Z,0.67
2018-12-22T07:08:57.695Z,1.50
2018-12-22T07:11:25.280Z,2.10
2018-12-22T07:13:52.871Z,0.83
2018-12-22T07:16:20.447Z,0.53
2018-12-22T07:18:48.126Z,2.07
2018-12-22T07:21:16.318Z,1.83
2018-12-22T07:23:44.386Z,1.80
2018-12-22T07:26:11.958Z,2.80
2018-12-22T07:28:39.548Z,0.70
2018-12-22T07:31:07.479Z,0.70
2018-12-22T07:33:35.065Z,1.10
2018-12-22T07:36:02.644Z,1.03
2018-12-22T07:38:30.235Z,5.30
2018-12-22T07:40:57.815Z,0.80
2018-12-22T07:43:25.387Z,1.00
2018-12-22T07:45:52.973Z,3.27
2018-12-22T07:48:20.606Z,0.80
2018-12-22T07:50:48.188Z,0.93
2018-12-22T07:53:15.775Z,1.30
2018-12-22T07:55:43.354Z,3.10
2018-12-22T07:58:10.941Z,0.87
2018-12-22T08:00:38.532Z,3.70
2018-12-22T08:03:06.129Z,2.13
2018-12-22T08:05:38.722Z,1.33
2018-12-22T08:08:03.330Z,4.70
2018-12-22T08:10:30.904Z,2.77
2018-12-22T08:12:58.570Z,3.43
2018-12-22T08:15:26.181Z,3.50
2018-12-22T08:17:53.767Z,11.20
2018-12-22T08:20:21.342Z,0.57
2018-12-22T08:22:48.927Z,2.63
2018-12-22T08:25:16.527Z,1.27
2018-12-22T08:27:44.104Z,1.20
2018-12-22T08:30:11.752Z,0.43
2018-12-22T08:32:39.333Z,0.63
2018-12-22T08:35:07.134Z,0.50
2018-12-22T08:37:35.541Z,1.57
2018-12-22T08:40:03.667Z,1.90
2018-12-22T08:42:31.254Z,3.63
2018-12-22T08:44:58.852Z,2.67
2018-12-22T08:47:26.467Z,3.73
2018-12-22T08:49:54.124Z,5.63
2018-12-22T08:52:21.878Z,7.03
2018-12-22T08:54:49.462Z,2.20
2018-12-22T08:57:17.055Z,1.63
2018-12-22T08:59:44.699Z,2.90
2018-12-22T09:02:13.038Z,1.60
2018-12-22T09:04:40.619Z,1.30
2018-12-22T09:07:08.216Z,2.07
2018-12-22T09:09:35.786Z,2.90
2018-12-22T09:12:03.357Z,0.90
2018-12-22T09:14:30.934Z,1.30
2018-12-22T09:16:58.506Z,2.00
2018-12-22T09:19:26.132Z,2.73
2018-12-22T09:21:53.715Z,2.60
2018-12-22T09:24:21.311Z,2.10
2018-12-22T09:26:48.884Z,1.53
2018-12-22T09:29:16.466Z,1.43
2018-12-22T09:31:44.040Z,1.27
2018-12-22T09:34:13.505Z,2.53
2018-12-22T09:36:41.395Z,2.20
2018-12-22T09:39:09.101Z,2.20
2018-12-22T09:41:36.680Z,1.20
2018-12-22T09:44:04.269Z,1.77
2018-12-22T09:46:31.858Z,3.03
2018-12-22T09:48:59.444Z,2.63
2018-12-22T09:51:27.053Z,3.03
2018-12-22T09:53:54.652Z,3.47
2018-12-22T09:56:22.286Z,4.70
2018-12-22T09:58:49.878Z,3.00
2018-12-22T10:01:17.462Z,1.73
2018-12-22T10:03:45.098Z,4.77
2018-12-22T10:08:46.366Z,4.87
2018-12-22T10:11:14.081Z,1.87
2018-12-22T10:13:41.663Z,1.80
2018-12-22T10:16:09.254Z,4.20
2018-12-22T10:18:36.897Z,0.77
2018-12-22T10:21:04.521Z,0.97
2018-12-22T10:23:32.104Z,1.43
2018-12-22T10:25:59.683Z,1.83
2018-12-22T10:28:27.277Z,10.50
2018-12-22T10:30:54.849Z,3.03
2018-12-22T10:33:24.288Z,1.80
2018-12-22T10:35:53.642Z,2.50
2018-12-22T10:38:21.332Z,1.43
2018-12-22T10:40:48.929Z,10.37
2018-12-22T10:43:16.517Z,3.47
2018-12-22T10:45:44.094Z,3.50
2018-12-22T10:48:11.680Z,0.80
2018-12-22T10:50:39.336Z,2.53
2018-12-22T10:53:07.395Z,2.60
2018-12-22T10:55:34.976Z,2.43
2018-12-22T10:58:02.563Z,2.00
2018-12-22T11:00:30.280Z,1.80
2018-12-22T11:02:57.864Z,2.63
2018-12-22T11:05:25.455Z,1.17
2018-12-22T11:07:53.067Z,2.60
2018-12-22T11:10:20.651Z,3.93
2018-12-22T11:12:48.256Z,3.07
2018-12-22T11:15:15.852Z,4.63
2018-12-22T11:17:43.542Z,2.83
2018-12-22T11:20:11.124Z,5.20
2018-12-22T11:22:38.711Z,4.43
2018-12-22T11:25:11.039Z,3.63
2018-12-22T11:27:39.474Z,4.13
2018-12-22T11:30:14.235Z,1.93
2018-12-22T11:32:41.839Z,4.30
2018-12-22T11:35:09.538Z,5.10
2018-12-22T11:37:37.128Z,4.33
2018-12-22T11:40:07.449Z,3.23
2018-12-22T11:42:35.146Z,1.63
2018-12-22T11:45:03.061Z,3.67
2018-12-22T11:47:33.617Z,7.50
2018-12-22T11:50:01.203Z,7.03
2018-12-22T11:52:28.786Z,3.67
2018-12-22T11:54:56.365Z,5.17
2018-12-22T11:57:23.994Z,5.40
2018-12-22T11:59:51.575Z,4.47
2018-12-22T12:02:19.556Z,4.57
2018-12-22T12:04:47.502Z,5.63
2018-12-22T12:07:15.194Z,5.53
2018-12-22T12:09:42.803Z,2.93
2018-12-22T12:12:10.382Z,5.77
2018-12-22T12:14:38.052Z,3.70
2018-12-22T12:17:06.506Z,5.37
2018-12-22T12:19:34.188Z,2.67
2018-12-22T12:22:02.879Z,1.80
2018-12-22T12:24:30.574Z,1.63
2018-12-22T12:26:58.725Z,2.53
2018-12-22T12:29:26.561Z,0.77
2018-12-22T12:31:54.158Z,1.57
2018-12-22T12:34:22.535Z,4.00
2018-12-22T12:36:50.202Z,2.30
2018-12-22T12:39:18.445Z,1.33
2018-12-22T12:41:46.033Z,1.57
2018-12-22T12:44:13.635Z,1.50
2018-12-22T12:46:41.214Z,3.73
2018-12-22T12:49:09.011Z,1.30
2018-12-22T12:51:36.609Z,2.60
2018-12-22T12:54:04.406Z,1.53
2018-12-22T12:56:32.007Z,3.10
2018-12-22T12:58:59.592Z,1.97
2018-12-22T13:01:27.186Z,2.43
2018-12-22T13:03:54.772Z,2.10
2018-12-22T13:06:22.388Z,5.50
2018-12-22T13:08:49.997Z,4.20
2018-12-22T13:11:17.595Z,3.27
2018-12-22T13:13:46.547Z,2.23
2018-12-22T13:16:14.154Z,2.63
2018-12-22T13:18:41.793Z,5.80
2018-12-22T13:21:09.999Z,2.43
2018-12-22T13:23:37.575Z,4.50
2018-12-22T13:26:05.166Z,4.53
2018-12-22T13:28:32.799Z,4.57
2018-12-22T13:31:01.102Z,2.60
2018-12-22T13:33:28.829Z,8.90
2018-12-22T13:35:56.760Z,2.43
2018-12-22T13:38:24.508Z,2.17
2018-12-22T13:40:52.093Z,2.17
2018-12-22T13:43:19.681Z,2.70
2018-12-22T13:45:47.256Z,5.13
2018-12-22T13:48:15.098Z,3.90
2018-12-22T13:50:43.302Z,6.87
2018-12-22T13:53:10.977Z,1.43
2018-12-22T13:55:38.663Z,1.47
2018-12-22T13:58:06.368Z,7.00
2018-12-22T14:00:34.031Z,5.10
2018-12-22T14:03:02.419Z,9.37
2018-12-22T14:05:30.043Z,2.93
2018-12-22T14:07:57.641Z,5.87
2018-12-22T14:10:25.483Z,7.63
2018-12-22T14:12:53.200Z,3.23
2018-12-22T14:15:23.805Z,4.60
2018-12-22T14:18:26.074Z,6.17
2018-12-22T14:20:54.604Z,5.30
2018-12-22T14:23:25.460Z,6.03
2018-12-22T14:25:53.337Z,2.40
2018-12-22T14:28:20.917Z,4.27
2018-12-22T14:30:48.519Z,3.50
2018-12-22T14:33:16.165Z,2.63
2018-12-22T14:35:44.959Z,4.20
2018-12-22T14:38:12.573Z,4.27
2018-12-22T14:40:40.172Z,6.03
2018-12-22T14:43:07.833Z,8.27
2018-12-22T14:45:35.423Z,3.67
2018-12-22T14:48:02.999Z,6.87
2018-12-22T14:50:30.590Z,6.30
2018-12-22T14:52:58.762Z,6.13
2018-12-22T14:55:27.727Z,7.70
2018-12-22T14:57:57.615Z,11.10
2018-12-22T15:00:25.264Z,9.07
2018-12-22T15:02:53.198Z,12.90
2018-12-22T15:05:22.755Z,10.37
2018-12-22T15:07:50.336Z,7.57
2018-12-22T15:10:17.915Z,6.23
2018-12-22T15:12:45.510Z,5.17
2018-12-22T15:15:13.102Z,10.10
2018-12-22T15:17:42.783Z,4.13
2018-12-22T15:20:19.523Z,4.10
2018-12-22T15:22:47.110Z,5.20
2018-12-22T15:25:15.362Z,5.23
2018-12-22T15:27:42.993Z,6.20
2018-12-22T15:30:13.460Z,3.57
2018-12-22T15:32:44.547Z,5.63
2018-12-22T15:35:10.861Z,3.80
2018-12-22T15:37:38.439Z,4.70
2018-12-22T15:40:10.005Z,6.07
2018-12-22T15:42:37.935Z,8.13
2018-12-22T15:45:15.686Z,5.67
2018-12-22T15:47:45.315Z,3.20
2018-12-22T15:50:24.438Z,2.30
2018-12-22T15:52:53.017Z,8.30
2018-12-22T15:55:20.632Z,8.00
2018-12-22T15:57:48.218Z,4.70
2018-12-22T16:00:15.824Z,3.70
2018-12-22T16:02:43.405Z,2.30
2018-12-22T16:05:12.170Z,6.93
2018-12-22T16:07:41.845Z,4.27
2018-12-22T16:10:14.432Z,6.53
2018-12-22T16:12:42.174Z,4.50
2018-12-22T16:15:13.261Z,16.13
2018-12-22T16:17:41.059Z,6.53
2018-12-22T16:20:11.723Z,11.10
2018-12-22T16:22:41.777Z,6.97
2018-12-22T16:25:11.907Z,4.00
2018-12-22T16:27:40.296Z,7.27
2018-12-22T16:30:18.519Z,3.63
2018-12-22T16:32:46.131Z,5.83
2018-12-22T16:35:13.722Z,4.37
2018-12-22T16:37:41.323Z,20.73
2018-12-22T16:40:12.024Z,3.47
2018-12-22T16:42:39.631Z,6.50
2018-12-22T16:45:14.370Z,5.23
2018-12-22T16:47:42.934Z,8.50
2018-12-22T16:50:13.155Z,7.03
2018-12-22T16:52:40.740Z,4.40
2018-12-22T16:55:14.625Z,3.20
2018-12-22T16:57:55.706Z,7.97
2018-12-22T17:00:27.489Z,2.63
2018-12-22T17:02:55.071Z,2.17
2018-12-22T17:05:22.703Z,3.93
2018-12-22T17:07:50.453Z,1.60
2018-12-22T17:10:18.050Z,4.77
2018-12-22T17:12:46.182Z,3.33
2018-12-22T17:15:21.770Z,4.27
2018-12-22T17:17:44.460Z,2.50
2018-12-22T17:20:14.538Z,5.40
2018-12-22T17:26:00.446Z,6.37
2018-12-22T17:28:28.682Z,6.77
2018-12-22T17:30:56.467Z,11.13
2018-12-22T17:33:24.055Z,4.33
2018-12-22T17:35:51.654Z,7.77
2018-12-22T17:38:20.721Z,2.40
2018-12-22T17:40:48.699Z,4.57
2018-12-22T17:43:16.303Z,4.17
2018-12-22T17:45:43.887Z,2.40
2018-12-22T17:48:11.487Z,4.93
2018-12-22T17:50:39.089Z,3.90
2018-12-22T17:53:06.733Z,6.27
2018-12-22T17:55:34.331Z,2.60
2018-12-22T17:58:01.941Z,5.53
2018-12-22T18:00:29.566Z,4.70
2018-12-22T18:02:57.155Z,6.33
2018-12-22T18:05:24.769Z,2.27
2018-12-22T18:07:52.378Z,11.80
2018-12-22T18:10:19.978Z,4.43
2018-12-22T18:12:47.585Z,7.27
2018-12-22T18:15:19.001Z,4.43
2018-12-22T18:17:46.760Z,5.43
2018-12-22T18:20:14.377Z,3.13
2018-12-22T18:22:41.984Z,5.40
2018-12-22T18:25:15.963Z,4.63
2018-12-22T18:27:43.598Z,8.70
2018-12-22T18:30:12.547Z,4.77
2018-12-22T18:32:41.541Z,12.37
2018-12-22T18:35:10.963Z,9.33
2018-12-22T18:37:39.247Z,6.17
2018-12-22T18:40:11.293Z,4.83
2018-12-22T18:42:38.968Z,4.50
2018-12-22T18:45:10.052Z,3.23
2018-12-22T18:47:37.674Z,13.40
2018-12-22T18:50:10.239Z,5.87
2018-12-22T18:52:37.842Z,5.60
2018-12-22T18:55:07.911Z,2.87
2018-12-22T18:57:35.498Z,4.43
2018-12-22T19:00:04.417Z,5.07
2018-12-22T19:02:32.011Z,5.67
2018-12-22T19:04:59.665Z,8.77
2018-12-22T19:07:27.373Z,11.07
2018-12-22T19:09:55.025Z,8.43
2018-12-22T19:12:22.686Z,6.13
2018-12-22T19:14:53.798Z,7.10
2018-12-22T19:17:21.426Z,8.27
2018-12-22T19:19:49.292Z,6.00
2018-12-22T19:22:16.890Z,5.67
2018-12-22T19:24:44.474Z,7.87
2018-12-22T19:27:12.077Z,14.93
2018-12-22T19:29:40.532Z,8.67
2018-12-22T19:32:08.128Z,10.73
2018-12-22T19:34:35.772Z,6.60
2018-12-22T19:37:03.428Z,4.80
2018-12-22T19:39:31.023Z,6.97
2018-12-22T19:41:58.623Z,8.07
2018-12-22T19:44:26.207Z,4.43
2018-12-22T19:46:53.793Z,5.57
2018-12-22T19:49:21.399Z,5.33
2018-12-22T19:51:48.984Z,7.37
2018-12-22T19:54:16.571Z,5.77
2018-12-22T19:56:44.172Z,8.63
2018-12-22T19:59:11.789Z,4.13
2018-12-22T20:01:39.428Z,5.33
2018-12-22T20:04:07.025Z,5.53
2018-12-22T20:06:34.613Z,4.53
2018-12-22T20:09:02.277Z,3.33
2018-12-22T20:11:29.958Z,6.67
2018-12-22T20:13:57.551Z,4.77
2018-12-22T20:16:25.138Z,5.90
2018-12-22T20:18:52.741Z,6.90
2018-12-22T20:21:20.338Z,2.23
2018-12-22T20:23:47.933Z,6.40
2018-12-22T20:26:15.527Z,8.97
2018-12-22T20:28:43.170Z,4.40
2018-12-22T20:31:10.781Z,6.43
2018-12-22T20:33:38.393Z,5.07
2018-12-22T20:36:05.974Z,4.70
2018-12-22T20:38:33.570Z,9.93
2018-12-22T20:41:01.175Z,3.90
2018-12-22T20:43:28.772Z,9.07
2018-12-22T20:45:56.543Z,2.70
2018-12-22T20:48:24.143Z,9.67
2018-12-22T20:50:51.784Z,6.20
2018-12-22T20:53:19.418Z,3.60
2018-12-22T20:55:47.011Z,5.20
2018-12-22T20:58:14.590Z,7.03
2018-12-22T21:00:42.188Z,8.83
2018-12-22T21:03:09.839Z,5.80
2018-12-22T21:05:41.477Z,6.63
2018-12-22T21:08:09.080Z,13.70
2018-12-22T21:10:36.742Z,4.53
2018-12-22T21:13:04.341Z,4.30
2018-12-22T21:15:31.925Z,6.20
2018-12-22T21:17:59.516Z,3.67
2018-12-22T21:20:27.110Z,3.13
2018-12-22T21:22:54.704Z,5.50
2018-12-22T21:25:22.295Z,4.80
2018-12-22T21:27:49.926Z,4.67
2018-12-22T21:30:17.510Z,7.33
2018-12-22T21:32:45.097Z,4.50
2018-12-22T21:35:12.681Z,4.00
2018-12-22T21:37:40.281Z,5.07
2018-12-22T21:40:08.303Z,10.78
2018-12-22T21:42:35.887Z,5.70
2018-12-22T21:45:03.524Z,4.33
2018-12-22T21:47:31.111Z,5.80
2018-12-22T21:49:58.681Z,6.17
2018-12-22T21:52:26.533Z,5.10
2018-12-22T21:54:54.134Z,3.57
2018-12-22T21:57:21.851Z,6.67
2018-12-22T21:59:49.442Z,5.33
2018-12-22T22:02:17.034Z,6.40
2018-12-22T22:04:44.617Z,6.33
2018-12-22T22:07:12.199Z,4.57
2018-12-22T22:09:39.821Z,3.63
2018-12-22T22:12:07.424Z,7.13
2018-12-22T22:14:35.077Z,9.10
2018-12-22T22:17:02.704Z,11.43
2018-12-22T22:19:30.285Z,9.67
2018-12-22T22:21:57.867Z,5.43
2018-12-22T22:24:25.470Z,8.73
2018-12-22T22:26:53.156Z,9.23
2018-12-22T22:29:20.870Z,13.30
2018-12-22T22:31:48.445Z,8.13
2018-12-22T22:34:16.029Z,7.43
2018-12-22T22:36:43.608Z,5.50
2018-12-22T22:39:11.189Z,6.10
2018-12-22T22:41:38.770Z,7.37
2018-12-22T22:44:06.434Z,8.80
2018-12-22T22:46:34.020Z,5.70
2018-12-22T22:49:01.610Z,5.10
2018-12-22T22:51:29.193Z,7.63
2018-12-22T22:53:56.787Z,6.23
2018-12-22T22:56:24.370Z,6.27
2018-12-22T22:58:51.963Z,10.87
2018-12-22T23:01:19.538Z,8.30
2018-12-22T23:03:47.123Z,7.47
2018-12-22T23:06:14.693Z,6.17
2018-12-22T23:08:42.286Z,8.30
2018-12-22T23:11:09.860Z,8.07
2018-12-22T23:13:37.433Z,7.40
2018-12-22T23:16:05.068Z,7.30
2018-12-22T23:18:32.658Z,6.43
2018-12-22T23:21:00.249Z,6.87
2018-12-22T23:23:27.833Z,11.03
2018-12-22T23:26:01.357Z,7.10
2018-12-22T23:28:29.015Z,17.37
2018-12-22T23:30:56.691Z,8.53
2018-12-22T23:33:24.401Z,7.57
2018-12-22T23:35:51.991Z,8.10
2018-12-22T23:38:19.566Z,9.63
2018-12-22T23:40:47.137Z,8.30
2018-12-22T23:43:14.718Z,8.70
2018-12-22T23:45:42.445Z,5.20
2018-12-22T23:48:10.022Z,13.43
2018-12-22T23:50:37.632Z,17.33
2018-12-22T23:53:05.252Z,7.27
2018-12-22T23:55:32.835Z,2.47
2018-12-22T23:58:00.413Z,6.07
